sensor_id;sensor_type;location;lat;lon;timestamp;P1;durP1;ratioP1;P2;durP2;ratioP2
24206;SDS011;12351;52.284;9.160;2023-01-28T00:00:00;4.43;;;1.63;;
24206;SDS011;12351;52.284;9.160;2023-01-28T00:02:47;2.30;;;1.70;;
24206;SDS011;12351;52.284;9.160;2023-01-28T00:05:33;3.37;;;1.23;;
24206;SDS011;12351;52.284;9.160;2023-01-28T00:08:20;3.90;;;1.17;;
24206;SDS011;12351;52.284;9.160;2023-01-28T00:11:07;1.80;;;1.00;;
24206;SDS011;12351;52.284;9.160;2023-01-28T00:13:56;2.53;;;1.33;;
24206;SDS011;12351;52.284;9.160;2023-01-28T00:16:42;2.37;;;1.10;;
24206;SDS011;12351;52.284;9.160;2023-01-28T00:19:29;1.47;;;1.07;;
24206;SDS011;12351;52.284;9.160;2023-01-28T00:22:16;2.53;;;1.10;;
24206;SDS011;12351;52.284;9.160;2023-01-28T00:25:03;1.87;;;0.73;;
24206;SDS011;12351;52.284;9.160;2023-01-28T00:27:50;2.17;;;0.97;;
24206;SDS011;12351;52.284;9.160;2023-01-28T00:30:36;3.30;;;0.90;;
24206;SDS011;12351;52.284;9.160;2023-01-28T00:33:23;4.43;;;1.10;;
24206;SDS011;12351;52.284;9.160;2023-01-28T00:36:11;2.00;;;1.00;;
24206;SDS011;12351;52.284;9.160;2023-01-28T00:41:46;3.17;;;1.20;;
24206;SDS011;12351;52.284;9.160;2023-01-28T00:44:33;2.33;;;1.30;;
24206;SDS011;12351;52.284;9.160;2023-01-28T00:47:20;3.43;;;1.20;;
24206;SDS011;12351;52.284;9.160;2023-01-28T00:50:06;2.83;;;1.00;;
24206;SDS011;12351;52.284;9.160;2023-01-28T00:52:54;1.13;;;1.03;;
24206;SDS011;12351;52.284;9.160;2023-01-28T00:55:40;2.90;;;1.20;;
24206;SDS011;12351;52.284;9.160;2023-01-28T00:58:27;2.53;;;1.10;;
24206;SDS011;12351;52.284;9.160;2023-01-28T01:01:14;1.73;;;1.00;;
24206;SDS011;12351;52.284;9.160;2023-01-28T01:04:02;4.77;;;1.20;;
24206;SDS011;12351;52.284;9.160;2023-01-28T01:06:49;2.97;;;1.30;;
24206;SDS011;12351;52.284;9.160;2023-01-28T01:09:35;2.17;;;1.10;;
24206;SDS011;12351;52.284;9.160;2023-01-28T01:12:22;2.33;;;1.00;;
24206;SDS011;12351;52.284;9.160;2023-01-28T01:15:09;2.77;;;1.00;;
24206;SDS011;12351;52.284;9.160;2023-01-28T01:17:56;6.23;;;1.10;;
24206;SDS011;12351;52.284;9.160;2023-01-28T01:20:43;2.77;;;1.17;;
24206;SDS011;12351;52.284;9.160;2023-01-28T01:23:30;3.67;;;1.00;;
24206;SDS011;12351;52.284;9.160;2023-01-28T01:26:16;2.97;;;1.10;;
24206;SDS011;12351;52.284;9.160;2023-01-28T01:29:03;1.90;;;0.80;;
24206;SDS011;12351;52.284;9.160;2023-01-28T01:31:50;2.10;;;1.03;;
24206;SDS011;12351;52.284;9.160;2023-01-28T01:34:36;2.43;;;0.90;;
24206;SDS011;12351;52.284;9.160;2023-01-28T01:37:23;1.53;;;0.83;;
24206;SDS011;12351;52.284;9.160;2023-01-28T01:40:10;2.73;;;1.07;;
24206;SDS011;12351;52.284;9.160;2023-01-28T01:42:57;1.40;;;1.03;;
24206;SDS011;12351;52.284;9.160;2023-01-28T01:45:43;2.90;;;1.00;;
24206;SDS011;12351;52.284;9.160;2023-01-28T01:48:33;3.93;;;1.10;;
24206;SDS011;12351;52.284;9.160;2023-01-28T01:51:20;1.47;;;1.00;;
24206;SDS011;12351;52.284;9.160;2023-01-28T01:54:09;1.00;;;0.90;;
24206;SDS011;12351;52.284;9.160;2023-01-28T01:56:55;3.70;;;1.03;;
24206;SDS011;12351;52.284;9.160;2023-01-28T01:59:43;1.23;;;0.90;;
24206;SDS011;12351;52.284;9.160;2023-01-28T02:02:30;2.50;;;0.90;;
24206;SDS011;12351;52.284;9.160;2023-01-28T02:05:20;2.43;;;0.97;;
24206;SDS011;12351;52.284;9.160;2023-01-28T02:08:07;2.97;;;1.63;;
24206;SDS011;12351;52.284;9.160;2023-01-28T02:10:56;2.57;;;1.20;;
24206;SDS011;12351;52.284;9.160;2023-01-28T02:13:45;2.37;;;1.13;;
24206;SDS011;12351;52.284;9.160;2023-01-28T02:16:33;2.40;;;1.20;;
24206;SDS011;12351;52.284;9.160;2023-01-28T02:19:20;2.50;;;1.03;;
24206;SDS011;12351;52.284;9.160;2023-01-28T02:22:14;2.13;;;1.10;;
24206;SDS011;12351;52.284;9.160;2023-01-28T02:30:39;2.83;;;1.17;;
24206;SDS011;12351;52.284;9.160;2023-01-28T02:33:31;2.53;;;1.10;;
24206;SDS011;12351;52.284;9.160;2023-01-28T02:36:23;5.13;;;1.57;;
24206;SDS011;12351;52.284;9.160;2023-01-28T02:39:12;4.63;;;1.33;;
24206;SDS011;12351;52.284;9.160;2023-01-28T02:42:01;2.53;;;1.03;;
24206;SDS011;12351;52.284;9.160;2023-01-28T02:44:48;3.53;;;1.20;;
24206;SDS011;12351;52.284;9.160;2023-01-28T02:47:34;1.93;;;1.10;;
24206;SDS011;12351;52.284;9.160;2023-01-28T02:50:22;2.63;;;1.00;;
24206;SDS011;12351;52.284;9.160;2023-01-28T03:01:43;2.40;;;1.10;;
24206;SDS011;12351;52.284;9.160;2023-01-28T03:04:35;4.30;;;1.30;;
24206;SDS011;12351;52.284;9.160;2023-01-28T03:07:22;2.10;;;1.20;;
24206;SDS011;12351;52.284;9.160;2023-01-28T03:10:11;2.27;;;1.00;;
24206;SDS011;12351;52.284;9.160;2023-01-28T03:13:00;2.40;;;1.00;;
24206;SDS011;12351;52.284;9.160;2023-01-28T03:15:48;1.90;;;0.90;;
24206;SDS011;12351;52.284;9.160;2023-01-28T03:24:23;1.93;;;0.83;;
24206;SDS011;12351;52.284;9.160;2023-01-28T03:30:03;2.63;;;1.03;;
24206;SDS011;12351;52.284;9.160;2023-01-28T03:32:52;3.00;;;1.17;;
24206;SDS011;12351;52.284;9.160;2023-01-28T03:35:41;3.03;;;1.10;;
24206;SDS011;12351;52.284;9.160;2023-01-28T03:38:29;3.33;;;1.20;;
24206;SDS011;12351;52.284;9.160;2023-01-28T03:41:19;3.03;;;1.50;;
24206;SDS011;12351;52.284;9.160;2023-01-28T03:44:06;3.63;;;1.30;;
24206;SDS011;12351;52.284;9.160;2023-01-28T03:46:54;2.10;;;0.97;;
24206;SDS011;12351;52.284;9.160;2023-01-28T03:49:41;2.47;;;0.97;;
24206;SDS011;12351;52.284;9.160;2023-01-28T03:52:30;1.93;;;1.07;;
24206;SDS011;12351;52.284;9.160;2023-01-28T03:55:17;1.67;;;1.00;;
24206;SDS011;12351;52.284;9.160;2023-01-28T03:58:04;1.73;;;1.27;;
24206;SDS011;12351;52.284;9.160;2023-01-28T04:00:50;2.80;;;0.87;;
24206;SDS011;12351;52.284;9.160;2023-01-28T04:03:38;5.50;;;1.40;;
24206;SDS011;12351;52.284;9.160;2023-01-28T04:06:24;2.03;;;1.40;;
24206;SDS011;12351;52.284;9.160;2023-01-28T04:09:12;4.53;;;1.50;;
24206;SDS011;12351;52.284;9.160;2023-01-28T04:11:59;1.67;;;1.30;;
24206;SDS011;12351;52.284;9.160;2023-01-28T04:14:45;2.87;;;1.40;;
24206;SDS011;12351;52.284;9.160;2023-01-28T04:17:32;1.77;;;1.33;;
24206;SDS011;12351;52.284;9.160;2023-01-28T04:20:19;2.77;;;1.50;;
24206;SDS011;12351;52.284;9.160;2023-01-28T04:23:06;4.63;;;1.67;;
24206;SDS011;12351;52.284;9.160;2023-01-28T04:25:53;2.87;;;1.73;;
24206;SDS011;12351;52.284;9.160;2023-01-28T04:28:40;3.67;;;1.70;;
24206;SDS011;12351;52.284;9.160;2023-01-28T04:31:26;3.53;;;1.63;;
24206;SDS011;12351;52.284;9.160;2023-01-28T04:34:13;2.93;;;2.10;;
24206;SDS011;12351;52.284;9.160;2023-01-28T04:37:01;3.83;;;2.30;;
24206;SDS011;12351;52.284;9.160;2023-01-28T04:39:47;2.70;;;2.47;;
24206;SDS011;12351;52.284;9.160;2023-01-28T04:42:35;4.00;;;2.73;;
24206;SDS011;12351;52.284;9.160;2023-01-28T04:45:22;4.93;;;2.43;;
24206;SDS011;12351;52.284;9.160;2023-01-28T04:48:09;3.40;;;2.70;;
24206;SDS011;12351;52.284;9.160;2023-01-28T04:50:56;4.43;;;2.17;;
24206;SDS011;12351;52.284;9.160;2023-01-28T04:53:42;3.70;;;2.20;;
24206;SDS011;12351;52.284;9.160;2023-01-28T04:56:29;4.07;;;2.20;;
24206;SDS011;12351;52.284;9.160;2023-01-28T04:59:15;4.23;;;2.37;;
24206;SDS011;12351;52.284;9.160;2023-01-28T05:02:03;4.97;;;2.17;;
24206;SDS011;12351;52.284;9.160;2023-01-28T05:04:50;2.60;;;2.00;;
24206;SDS011;12351;52.284;9.160;2023-01-28T05:07:36;3.37;;;1.90;;
24206;SDS011;12351;52.284;9.160;2023-01-28T05:10:23;3.53;;;1.63;;
24206;SDS011;12351;52.284;9.160;2023-01-28T05:13:10;3.83;;;1.93;;
24206;SDS011;12351;52.284;9.160;2023-01-28T05:15:57;3.50;;;1.70;;
24206;SDS011;12351;52.284;9.160;2023-01-28T05:18:43;4.07;;;1.67;;
24206;SDS011;12351;52.284;9.160;2023-01-28T05:21:31;3.80;;;1.43;;
24206;SDS011;12351;52.284;9.160;2023-01-28T05:24:18;2.00;;;1.30;;
24206;SDS011;12351;52.284;9.160;2023-01-28T05:27:05;3.57;;;1.63;;
24206;SDS011;12351;52.284;9.160;2023-01-28T05:29:51;3.70;;;1.43;;
24206;SDS011;12351;52.284;9.160;2023-01-28T05:32:38;3.40;;;1.40;;
24206;SDS011;12351;52.284;9.160;2023-01-28T05:35:24;2.67;;;1.43;;
24206;SDS011;12351;52.284;9.160;2023-01-28T05:38:11;3.70;;;1.23;;
24206;SDS011;12351;52.284;9.160;2023-01-28T05:40:57;3.20;;;1.30;;
24206;SDS011;12351;52.284;9.160;2023-01-28T05:43:44;2.53;;;1.30;;
24206;SDS011;12351;52.284;9.160;2023-01-28T05:46:31;3.30;;;1.60;;
24206;SDS011;12351;52.284;9.160;2023-01-28T05:49:17;1.30;;;1.10;;
24206;SDS011;12351;52.284;9.160;2023-01-28T05:52:04;3.27;;;1.33;;
24206;SDS011;12351;52.284;9.160;2023-01-28T05:54:50;1.83;;;1.10;;
24206;SDS011;12351;52.284;9.160;2023-01-28T05:57:37;2.90;;;1.20;;
24206;SDS011;12351;52.284;9.160;2023-01-28T06:00:23;2.83;;;1.30;;
24206;SDS011;12351;52.284;9.160;2023-01-28T06:03:10;3.13;;;1.30;;
24206;SDS011;12351;52.284;9.160;2023-01-28T06:05:57;1.80;;;0.90;;
24206;SDS011;12351;52.284;9.160;2023-01-28T06:08:44;2.67;;;1.30;;
24206;SDS011;12351;52.284;9.160;2023-01-28T06:11:30;2.33;;;1.13;;
24206;SDS011;12351;52.284;9.160;2023-01-28T06:14:16;2.33;;;1.10;;
24206;SDS011;12351;52.284;9.160;2023-01-28T06:17:03;1.80;;;1.00;;
24206;SDS011;12351;52.284;9.160;2023-01-28T06:19:51;2.30;;;1.13;;
24206;SDS011;12351;52.284;9.160;2023-01-28T06:22:39;3.33;;;1.50;;
24206;SDS011;12351;52.284;9.160;2023-01-28T06:25:29;3.50;;;1.60;;
24206;SDS011;12351;52.284;9.160;2023-01-28T06:28:19;4.33;;;1.93;;
24206;SDS011;12351;52.284;9.160;2023-01-28T06:31:08;3.60;;;1.73;;
24206;SDS011;12351;52.284;9.160;2023-01-28T06:33:58;3.47;;;1.40;;
24206;SDS011;12351;52.284;9.160;2023-01-28T06:36:49;2.80;;;1.50;;
24206;SDS011;12351;52.284;9.160;2023-01-28T06:39:37;3.57;;;1.40;;
24206;SDS011;12351;52.284;9.160;2023-01-28T06:42:27;3.53;;;1.33;;
24206;SDS011;12351;52.284;9.160;2023-01-28T06:45:17;3.03;;;1.50;;
24206;SDS011;12351;52.284;9.160;2023-01-28T06:48:08;3.17;;;1.33;;
24206;SDS011;12351;52.284;9.160;2023-01-28T06:51:01;3.33;;;1.37;;
24206;SDS011;12351;52.284;9.160;2023-01-28T06:53:52;4.40;;;3.10;;
24206;SDS011;12351;52.284;9.160;2023-01-28T06:56:40;9.80;;;6.00;;
24206;SDS011;12351;52.284;9.160;2023-01-28T06:59:31;15.63;;;8.93;;
24206;SDS011;12351;52.284;9.160;2023-01-28T07:02:20;8.67;;;4.17;;
24206;SDS011;12351;52.284;9.160;2023-01-28T07:05:11;6.73;;;4.13;;
24206;SDS011;12351;52.284;9.160;2023-01-28T07:08:01;4.03;;;1.60;;
24206;SDS011;12351;52.284;9.160;2023-01-28T07:10:53;2.10;;;1.40;;
24206;SDS011;12351;52.284;9.160;2023-01-28T07:13:43;2.20;;;1.40;;
24206;SDS011;12351;52.284;9.160;2023-01-28T07:16:35;4.20;;;1.80;;
24206;SDS011;12351;52.284;9.160;2023-01-28T07:19:26;1.62;;;1.40;;
24206;SDS011;12351;52.284;9.160;2023-01-28T07:22:18;2.83;;;1.70;;
24206;SDS011;12351;52.284;9.160;2023-01-28T07:25:11;1.82;;;1.40;;
24206;SDS011;12351;52.284;9.160;2023-01-28T07:28:05;2.33;;;1.40;;
24206;SDS011;12351;52.284;9.160;2023-01-28T07:30:57;2.53;;;1.30;;
24206;SDS011;12351;52.284;9.160;2023-01-28T07:33:46;6.50;;;1.70;;
24206;SDS011;12351;52.284;9.160;2023-01-28T07:36:39;2.40;;;1.40;;
24206;SDS011;12351;52.284;9.160;2023-01-28T07:39:28;3.27;;;1.33;;
24206;SDS011;12351;52.284;9.160;2023-01-28T07:42:17;4.40;;;1.80;;
24206;SDS011;12351;52.284;9.160;2023-01-28T07:45:05;4.67;;;1.40;;
24206;SDS011;12351;52.284;9.160;2023-01-28T07:47:59;2.20;;;1.60;;
24206;SDS011;12351;52.284;9.160;2023-01-28T07:50:47;2.77;;;1.37;;
24206;SDS011;12351;52.284;9.160;2023-01-28T07:53:39;3.13;;;1.60;;
24206;SDS011;12351;52.284;9.160;2023-01-28T07:56:30;5.27;;;2.63;;
24206;SDS011;12351;52.284;9.160;2023-01-28T07:59:18;2.80;;;1.67;;
24206;SDS011;12351;52.284;9.160;2023-01-28T08:02:10;3.07;;;1.50;;
24206;SDS011;12351;52.284;9.160;2023-01-28T08:05:00;3.57;;;1.50;;
24206;SDS011;12351;52.284;9.160;2023-01-28T08:07:49;3.67;;;1.40;;
24206;SDS011;12351;52.284;9.160;2023-01-28T08:10:41;4.30;;;1.90;;
24206;SDS011;12351;52.284;9.160;2023-01-28T08:13:33;2.95;;;1.70;;
24206;SDS011;12351;52.284;9.160;2023-01-28T08:16:22;5.97;;;2.13;;
24206;SDS011;12351;52.284;9.160;2023-01-28T08:19:13;3.70;;;2.10;;
24206;SDS011;12351;52.284;9.160;2023-01-28T08:22:03;2.80;;;1.60;;
24206;SDS011;12351;52.284;9.160;2023-01-28T08:24:53;4.90;;;2.03;;
24206;SDS011;12351;52.284;9.160;2023-01-28T08:27:42;4.90;;;1.87;;
24206;SDS011;12351;52.284;9.160;2023-01-28T08:30:34;5.63;;;1.80;;
24206;SDS011;12351;52.284;9.160;2023-01-28T08:33:25;4.22;;;1.70;;
24206;SDS011;12351;52.284;9.160;2023-01-28T08:36:15;2.77;;;1.70;;
24206;SDS011;12351;52.284;9.160;2023-01-28T08:39:06;3.10;;;2.00;;
24206;SDS011;12351;52.284;9.160;2023-01-28T08:41:55;5.47;;;2.60;;
24206;SDS011;12351;52.284;9.160;2023-01-28T08:44:48;4.23;;;1.87;;
24206;SDS011;12351;52.284;9.160;2023-01-28T08:47:45;2.80;;;1.90;;
24206;SDS011;12351;52.284;9.160;2023-01-28T08:50:30;2.03;;;1.60;;
24206;SDS011;12351;52.284;9.160;2023-01-28T08:53:18;3.63;;;1.60;;
24206;SDS011;12351;52.284;9.160;2023-01-28T08:56:06;4.43;;;1.43;;
24206;SDS011;12351;52.284;9.160;2023-01-28T08:58:57;3.70;;;1.60;;
24206;SDS011;12351;52.284;9.160;2023-01-28T09:01:48;2.47;;;1.60;;
24206;SDS011;12351;52.284;9.160;2023-01-28T09:04:36;4.57;;;1.87;;
24206;SDS011;12351;52.284;9.160;2023-01-28T09:07:26;6.47;;;2.13;;
24206;SDS011;12351;52.284;9.160;2023-01-28T09:10:16;5.47;;;2.43;;
24206;SDS011;12351;52.284;9.160;2023-01-28T09:13:07;4.00;;;2.00;;
24206;SDS011;12351;52.284;9.160;2023-01-28T09:15:59;3.27;;;1.93;;
24206;SDS011;12351;52.284;9.160;2023-01-28T09:18:49;2.65;;;1.90;;
24206;SDS011;12351;52.284;9.160;2023-01-28T09:21:38;7.90;;;4.30;;
24206;SDS011;12351;52.284;9.160;2023-01-28T09:24:28;7.10;;;3.87;;
24206;SDS011;12351;52.284;9.160;2023-01-28T09:27:18;4.10;;;3.70;;
24206;SDS011;12351;52.284;9.160;2023-01-28T09:30:06;6.63;;;4.20;;
24206;SDS011;12351;52.284;9.160;2023-01-28T09:32:57;6.17;;;4.10;;
24206;SDS011;12351;52.284;9.160;2023-01-28T09:35:47;7.50;;;4.13;;
24206;SDS011;12351;52.284;9.160;2023-01-28T09:38:35;4.37;;;3.97;;
24206;SDS011;12351;52.284;9.160;2023-01-28T09:47:08;11.93;;;7.90;;
24206;SDS011;12351;52.284;9.160;2023-01-28T09:49:56;6.60;;;4.97;;
24206;SDS011;12351;52.284;9.160;2023-01-28T09:52:44;6.87;;;4.10;;
24206;SDS011;12351;52.284;9.160;2023-01-28T09:55:35;8.50;;;5.57;;
24206;SDS011;12351;52.284;9.160;2023-01-28T09:58:25;6.03;;;3.90;;
24206;SDS011;12351;52.284;9.160;2023-01-28T10:01:22;6.62;;;3.85;;
24206;SDS011;12351;52.284;9.160;2023-01-28T10:04:10;6.20;;;3.50;;
24206;SDS011;12351;52.284;9.160;2023-01-28T10:09:48;5.13;;;3.97;;
24206;SDS011;12351;52.284;9.160;2023-01-28T10:12:38;5.33;;;4.20;;
24206;SDS011;12351;52.284;9.160;2023-01-28T10:15:28;6.43;;;3.90;;
24206;SDS011;12351;52.284;9.160;2023-01-28T10:18:16;4.40;;;4.00;;
24206;SDS011;12351;52.284;9.160;2023-01-28T10:23:59;4.57;;;3.13;;
24206;SDS011;12351;52.284;9.160;2023-01-28T10:26:46;5.57;;;3.93;;
24206;SDS011;12351;52.284;9.160;2023-01-28T10:29:37;4.37;;;3.20;;
24206;SDS011;12351;52.284;9.160;2023-01-28T10:32:30;4.80;;;3.83;;
24206;SDS011;12351;52.284;9.160;2023-01-28T10:35:21;4.10;;;3.33;;
24206;SDS011;12351;52.284;9.160;2023-01-28T10:38:13;7.22;;;3.35;;
24206;SDS011;12351;52.284;9.160;2023-01-28T10:41:04;7.57;;;3.20;;
24206;SDS011;12351;52.284;9.160;2023-01-28T10:43:53;3.53;;;2.93;;
24206;SDS011;12351;52.284;9.160;2023-01-28T10:46:44;4.17;;;3.13;;
24206;SDS011;12351;52.284;9.160;2023-01-28T10:49:35;3.00;;;2.70;;
24206;SDS011;12351;52.284;9.160;2023-01-28T10:52:25;5.37;;;3.00;;
24206;SDS011;12351;52.284;9.160;2023-01-28T10:55:16;2.97;;;2.10;;
24206;SDS011;12351;52.284;9.160;2023-01-28T10:58:05;3.00;;;2.70;;
24206;SDS011;12351;52.284;9.160;2023-01-28T11:00:58;3.23;;;2.67;;
24206;SDS011;12351;52.284;9.160;2023-01-28T11:06:40;5.00;;;2.73;;
24206;SDS011;12351;52.284;9.160;2023-01-28T11:09:30;4.20;;;3.23;;
24206;SDS011;12351;52.284;9.160;2023-01-28T11:15:15;7.00;;;3.92;;
24206;SDS011;12351;52.284;9.160;2023-01-28T11:18:04;5.33;;;3.77;;
24206;SDS011;12351;52.284;9.160;2023-01-28T11:20:53;4.43;;;3.53;;
24206;SDS011;12351;52.284;9.160;2023-01-28T11:26:34;4.27;;;3.83;;
24206;SDS011;12351;52.284;9.160;2023-01-28T11:35:02;8.13;;;5.33;;
24206;SDS011;12351;52.284;9.160;2023-01-28T11:37:55;5.87;;;5.20;;
24206;SDS011;12351;52.284;9.160;2023-01-28T11:43:35;5.77;;;5.20;;
24206;SDS011;12351;52.284;9.160;2023-01-28T12:00:44;7.40;;;5.90;;
24206;SDS011;12351;52.284;9.160;2023-01-28T12:03:38;9.10;;;5.83;;
24206;SDS011;12351;52.284;9.160;2023-01-28T12:09:18;8.87;;;6.00;;
24206;SDS011;12351;52.284;9.160;2023-01-28T12:15:01;6.77;;;5.60;;
24206;SDS011;12351;52.284;9.160;2023-01-28T12:20:40;8.77;;;5.60;;
24206;SDS011;12351;52.284;9.160;2023-01-28T12:23:31;5.80;;;5.20;;
24206;SDS011;12351;52.284;9.160;2023-01-28T12:26:22;7.23;;;5.30;;
24206;SDS011;12351;52.284;9.160;2023-01-28T12:37:44;9.87;;;6.00;;
24206;SDS011;12351;52.284;9.160;2023-01-28T12:40:38;6.00;;;5.40;;
24206;SDS011;12351;52.284;9.160;2023-01-28T12:49:07;6.97;;;5.47;;
24206;SDS011;12351;52.284;9.160;2023-01-28T12:57:36;6.40;;;5.10;;
24206;SDS011;12351;52.284;9.160;2023-01-28T13:03:24;6.10;;;5.47;;
24206;SDS011;12351;52.284;9.160;2023-01-28T13:06:12;8.60;;;5.20;;
24206;SDS011;12351;52.284;9.160;2023-01-28T13:09:02;7.60;;;5.47;;
24206;SDS011;12351;52.284;9.160;2023-01-28T13:11:53;6.40;;;5.30;;
24206;SDS011;12351;52.284;9.160;2023-01-28T13:14:44;11.13;;;5.10;;
24206;SDS011;12351;52.284;9.160;2023-01-28T13:17:36;5.37;;;4.77;;
24206;SDS011;12351;52.284;9.160;2023-01-28T13:20:28;7.33;;;5.37;;
24206;SDS011;12351;52.284;9.160;2023-01-28T13:31:49;5.20;;;4.70;;
24206;SDS011;12351;52.284;9.160;2023-01-28T13:34:41;5.78;;;4.72;;
24206;SDS011;12351;52.284;9.160;2023-01-28T13:37:33;7.20;;;4.97;;
24206;SDS011;12351;52.284;9.160;2023-01-28T13:40:24;6.40;;;4.83;;
24206;SDS011;12351;52.284;9.160;2023-01-28T13:46:06;5.70;;;5.05;;
24206;SDS011;12351;52.284;9.160;2023-01-28T13:48:57;8.93;;;5.40;;
24206;SDS011;12351;52.284;9.160;2023-01-28T13:51:54;6.00;;;5.15;;
24206;SDS011;12351;52.284;9.160;2023-01-28T13:54:43;8.57;;;5.40;;
24206;SDS011;12351;52.284;9.160;2023-01-28T14:00:28;5.60;;;5.07;;
24206;SDS011;12351;52.284;9.160;2023-01-28T14:20:25;8.33;;;5.67;;
24206;SDS011;12351;52.284;9.160;2023-01-28T14:23:15;6.20;;;5.40;;
24206;SDS011;12351;52.284;9.160;2023-01-28T14:31:47;6.43;;;4.90;;
24206;SDS011;12351;52.284;9.160;2023-01-28T14:34:43;7.33;;;5.63;;
24206;SDS011;12351;52.284;9.160;2023-01-28T14:37:34;6.83;;;5.78;;
24206;SDS011;12351;52.284;9.160;2023-01-28T14:40:24;6.07;;;5.00;;
24206;SDS011;12351;52.284;9.160;2023-01-28T14:43:17;5.70;;;5.20;;
24206;SDS011;12351;52.284;9.160;2023-01-28T14:46:11;5.93;;;4.93;;
24206;SDS011;12351;52.284;9.160;2023-01-28T14:57:20;7.13;;;5.73;;
24206;SDS011;12351;52.284;9.160;2023-01-28T15:03:06;7.10;;;6.27;;
24206;SDS011;12351;52.284;9.160;2023-01-28T15:08:41;7.63;;;6.57;;
24206;SDS011;12351;52.284;9.160;2023-01-28T15:11:32;6.70;;;5.27;;
24206;SDS011;12351;52.284;9.160;2023-01-28T15:17:20;10.27;;;7.70;;
24206;SDS011;12351;52.284;9.160;2023-01-28T15:20:06;9.50;;;6.40;;
24206;SDS011;12351;52.284;9.160;2023-01-28T15:22:53;8.33;;;6.03;;
24206;SDS011;12351;52.284;9.160;2023-01-28T15:25:45;8.97;;;7.03;;
24206;SDS011;12351;52.284;9.160;2023-01-28T15:28:36;7.83;;;6.57;;
24206;SDS011;12351;52.284;9.160;2023-01-28T15:31:26;9.27;;;6.77;;
24206;SDS011;12351;52.284;9.160;2023-01-28T15:34:19;12.95;;;9.25;;
24206;SDS011;12351;52.284;9.160;2023-01-28T15:37:11;11.18;;;8.33;;
24206;SDS011;12351;52.284;9.160;2023-01-28T15:40:01;9.10;;;7.30;;
24206;SDS011;12351;52.284;9.160;2023-01-28T15:42:52;10.23;;;7.00;;
24206;SDS011;12351;52.284;9.160;2023-01-28T15:45:43;11.03;;;8.33;;
24206;SDS011;12351;52.284;9.160;2023-01-28T15:48:34;10.93;;;8.00;;
24206;SDS011;12351;52.284;9.160;2023-01-28T15:51:25;9.77;;;7.77;;
24206;SDS011;12351;52.284;9.160;2023-01-28T15:54:16;10.27;;;8.03;;
24206;SDS011;12351;52.284;9.160;2023-01-28T16:02:48;13.43;;;7.67;;
24206;SDS011;12351;52.284;9.160;2023-01-28T16:05:39;10.97;;;7.37;;
24206;SDS011;12351;52.284;9.160;2023-01-28T16:08:33;10.27;;;7.40;;
24206;SDS011;12351;52.284;9.160;2023-01-28T16:11:21;10.10;;;7.67;;
24206;SDS011;12351;52.284;9.160;2023-01-28T16:17:00;10.53;;;8.23;;
24206;SDS011;12351;52.284;9.160;2023-01-28T16:19:50;11.37;;;7.97;;
24206;SDS011;12351;52.284;9.160;2023-01-28T16:22:39;10.00;;;7.60;;
24206;SDS011;12351;52.284;9.160;2023-01-28T16:25:32;12.53;;;7.43;;
24206;SDS011;12351;52.284;9.160;2023-01-28T16:28:23;11.83;;;7.97;;
24206;SDS011;12351;52.284;9.160;2023-01-28T16:31:14;12.50;;;7.80;;
24206;SDS011;12351;52.284;9.160;2023-01-28T16:34:04;11.33;;;8.43;;
24206;SDS011;12351;52.284;9.160;2023-01-28T16:39:46;10.33;;;7.80;;
24206;SDS011;12351;52.284;9.160;2023-01-28T16:42:37;12.07;;;7.62;;
24206;SDS011;12351;52.284;9.160;2023-01-28T16:45:28;62.90;;;22.07;;
24206;SDS011;12351;52.284;9.160;2023-01-28T16:48:17;27.87;;;14.23;;
24206;SDS011;12351;52.284;9.160;2023-01-28T16:53:58;40.40;;;18.17;;
24206;SDS011;12351;52.284;9.160;2023-01-28T16:56:49;69.63;;;31.57;;
24206;SDS011;12351;52.284;9.160;2023-01-28T16:59:40;17.33;;;12.10;;
24206;SDS011;12351;52.284;9.160;2023-01-28T17:02:29;11.47;;;9.93;;
24206;SDS011;12351;52.284;9.160;2023-01-28T17:05:20;12.63;;;10.70;;
24206;SDS011;12351;52.284;9.160;2023-01-28T17:08:09;14.40;;;10.90;;
24206;SDS011;12351;52.284;9.160;2023-01-28T17:11:01;12.37;;;9.80;;
24206;SDS011;12351;52.284;9.160;2023-01-28T17:13:51;9.60;;;8.20;;
24206;SDS011;12351;52.284;9.160;2023-01-28T17:16:40;8.73;;;7.17;;
24206;SDS011;12351;52.284;9.160;2023-01-28T17:19:32;9.50;;;7.20;;
24206;SDS011;12351;52.284;9.160;2023-01-28T17:22:21;9.00;;;6.10;;
24206;SDS011;12351;52.284;9.160;2023-01-28T17:25:11;7.57;;;5.90;;
24206;SDS011;12351;52.284;9.160;2023-01-28T17:28:00;8.23;;;5.77;;
24206;SDS011;12351;52.284;9.160;2023-01-28T17:30:50;8.97;;;5.87;;
24206;SDS011;12351;52.284;9.160;2023-01-28T17:33:40;16.20;;;13.30;;
24206;SDS011;12351;52.284;9.160;2023-01-28T17:36:31;13.10;;;11.08;;
24206;SDS011;12351;52.284;9.160;2023-01-28T17:39:24;11.17;;;8.27;;
24206;SDS011;12351;52.284;9.160;2023-01-28T17:42:11;9.57;;;6.70;;
24206;SDS011;12351;52.284;9.160;2023-01-28T17:44:59;8.67;;;5.80;;
24206;SDS011;12351;52.284;9.160;2023-01-28T17:47:51;8.50;;;6.17;;
24206;SDS011;12351;52.284;9.160;2023-01-28T17:50:41;10.37;;;6.33;;
24206;SDS011;12351;52.284;9.160;2023-01-28T17:53:30;8.90;;;5.87;;
24206;SDS011;12351;52.284;9.160;2023-01-28T17:56:20;7.13;;;5.50;;
24206;SDS011;12351;52.284;9.160;2023-01-28T17:59:11;8.05;;;6.10;;
24206;SDS011;12351;52.284;9.160;2023-01-28T18:02:02;14.20;;;7.90;;
24206;SDS011;12351;52.284;9.160;2023-01-28T18:04:52;12.83;;;8.20;;
24206;SDS011;12351;52.284;9.160;2023-01-28T18:07:40;12.70;;;8.27;;
24206;SDS011;12351;52.284;9.160;2023-01-28T18:10:30;9.67;;;7.27;;
24206;SDS011;12351;52.284;9.160;2023-01-28T18:16:12;11.23;;;8.30;;
24206;SDS011;12351;52.284;9.160;2023-01-28T18:19:02;13.07;;;9.53;;
24206;SDS011;12351;52.284;9.160;2023-01-28T18:21:51;9.50;;;7.43;;
24206;SDS011;12351;52.284;9.160;2023-01-28T18:24:41;13.27;;;8.47;;
24206;SDS011;12351;52.284;9.160;2023-01-28T18:27:33;12.67;;;8.00;;
24206;SDS011;12351;52.284;9.160;2023-01-28T18:30:25;10.98;;;7.78;;
24206;SDS011;12351;52.284;9.160;2023-01-28T18:33:15;10.50;;;7.10;;
24206;SDS011;12351;52.284;9.160;2023-01-28T18:36:05;10.47;;;6.40;;
24206;SDS011;12351;52.284;9.160;2023-01-28T18:38:55;14.03;;;7.67;;
24206;SDS011;12351;52.284;9.160;2023-01-28T18:41:47;10.20;;;7.80;;
24206;SDS011;12351;52.284;9.160;2023-01-28T18:44:35;11.80;;;7.20;;
24206;SDS011;12351;52.284;9.160;2023-01-28T18:47:26;10.83;;;7.60;;
24206;SDS011;12351;52.284;9.160;2023-01-28T18:50:16;14.63;;;9.47;;
24206;SDS011;12351;52.284;9.160;2023-01-28T18:53:08;11.47;;;8.10;;
24206;SDS011;12351;52.284;9.160;2023-01-28T18:58:48;13.40;;;8.40;;
24206;SDS011;12351;52.284;9.160;2023-01-28T19:01:36;16.20;;;9.10;;
24206;SDS011;12351;52.284;9.160;2023-01-28T19:04:28;14.60;;;9.27;;
24206;SDS011;12351;52.284;9.160;2023-01-28T19:07:18;12.30;;;8.23;;
24206;SDS011;12351;52.284;9.160;2023-01-28T19:10:10;13.40;;;8.60;;
24206;SDS011;12351;52.284;9.160;2023-01-28T19:13:00;13.33;;;8.40;;
24206;SDS011;12351;52.284;9.160;2023-01-28T19:15:50;10.27;;;7.57;;
24206;SDS011;12351;52.284;9.160;2023-01-28T19:18:38;11.23;;;7.87;;
24206;SDS011;12351;52.284;9.160;2023-01-28T19:21:29;14.93;;;8.57;;
24206;SDS011;12351;52.284;9.160;2023-01-28T19:24:22;12.10;;;8.33;;
24206;SDS011;12351;52.284;9.160;2023-01-28T19:27:11;13.33;;;8.57;;
24206;SDS011;12351;52.284;9.160;2023-01-28T19:30:02;14.37;;;9.43;;
24206;SDS011;12351;52.284;9.160;2023-01-28T19:32:54;13.83;;;9.13;;
24206;SDS011;12351;52.284;9.160;2023-01-28T19:35:42;15.70;;;9.33;;
24206;SDS011;12351;52.284;9.160;2023-01-28T19:38:31;19.50;;;10.03;;
24206;SDS011;12351;52.284;9.160;2023-01-28T19:41:22;13.73;;;9.30;;
24206;SDS011;12351;52.284;9.160;2023-01-28T19:44:15;15.60;;;9.30;;
24206;SDS011;12351;52.284;9.160;2023-01-28T19:47:06;18.17;;;10.37;;
24206;SDS011;12351;52.284;9.160;2023-01-28T19:49:55;13.08;;;7.87;;